createdAt,value
2023-05-07T00:04:02.721Z,17.9
2023-05-07T00:19:13.038Z,18.3
2023-05-07T00:34:24.197Z,17.3
2023-05-07T00:49:34.673Z,17.7
2023-05-07T01:04:44.974Z,18
2023-05-07T01:19:55.658Z,18.9
2023-05-07T01:35:06.494Z,20.1
2023-05-07T01:50:15.811Z,19.3
2023-05-07T02:05:25.552Z,19.4
2023-05-07T02:20:35.557Z,17.2
2023-05-07T02:35:45.709Z,14.3
2023-05-07T02:50:55.689Z,13.2
2023-05-07T03:06:05.362Z,12.1
2023-05-07T03:21:15.160Z,12.9
2023-05-07T03:36:25.565Z,9.8
2023-05-07T03:51:35.361Z,12.3
2023-05-07T04:06:45.846Z,11.5
2023-05-07T04:21:55.614Z,9.8
2023-05-07T04:37:04.955Z,8.8
2023-05-07T04:52:14.937Z,9.8
2023-05-07T05:07:25.298Z,9.7
2023-05-07T05:22:35.996Z,9.3
2023-05-07T05:37:46.747Z,9.4
2023-05-07T05:52:56.682Z,9.7
2023-05-07T06:08:07.168Z,8.3
2023-05-07T06:23:18.596Z,8.8
2023-05-07T06:38:29.097Z,8.7
2023-05-07T06:53:39.305Z,8.4
2023-05-07T07:08:49.700Z,8.8
2023-05-07T07:24:00.110Z,8.8
2023-05-07T07:39:09.904Z,11.8
2023-05-07T07:54:20.547Z,11.7
2023-05-07T08:09:30.564Z,10.7
2023-05-07T08:24:40.605Z,11.6
2023-05-07T08:39:50.749Z,9.3
2023-05-07T08:55:01.048Z,10.3
2023-05-07T09:10:12.075Z,9
2023-05-07T09:25:23.104Z,9.2
2023-05-07T09:40:33.777Z,10.2
2023-05-07T09:55:43.937Z,9.7
2023-05-07T10:10:55.188Z,10.5
2023-05-07T10:26:05.386Z,11.3
2023-05-07T10:41:15.325Z,10.7
2023-05-07T10:56:26.605Z,9.6
2023-05-07T11:11:36.909Z,9.2
2023-05-07T11:26:47.413Z,8.9
2023-05-07T11:41:57.726Z,8.1
2023-05-07T11:57:08.132Z,7.7
2023-05-07T12:12:18.107Z,7
2023-05-07T12:27:28.575Z,7.4
2023-05-07T12:42:38.634Z,7.7
2023-05-07T12:57:48.608Z,5.6
2023-05-07T13:12:58.756Z,5
2023-05-07T13:28:11.858Z,5.4
2023-05-07T13:43:25.758Z,5.3
2023-05-07T13:58:52.364Z,6.7
2023-05-07T14:14:11.854Z,6
2023-05-07T14:29:24.450Z,6.7
2023-05-07T14:44:33.643Z,5.5
2023-05-07T14:59:43.964Z,5.7
2023-05-07T15:14:54.652Z,5.9
2023-05-07T15:30:04.214Z,5.4
2023-05-07T15:45:14.092Z,5.9
2023-05-07T16:00:26.359Z,5.4
2023-05-07T16:15:36.505Z,5.4
2023-05-07T16:30:46.873Z,6.7
2023-05-07T16:45:55.843Z,6.1
2023-05-07T17:01:04.932Z,6.8
2023-05-07T17:16:14.281Z,7.4
2023-05-07T17:31:26.878Z,7.5
2023-05-07T17:46:37.026Z,6.9
2023-05-07T18:01:46.480Z,5.9
2023-05-07T18:16:56.607Z,6.8
2023-05-07T18:32:06.131Z,6.5
2023-05-07T18:47:16.022Z,6.6
2023-05-07T19:02:25.979Z,6.3
2023-05-07T19:17:35.726Z,6.9
2023-05-07T19:32:45.852Z,6.2
2023-05-07T19:47:55.688Z,5.5
2023-05-07T20:03:06.109Z,5.9
2023-05-07T20:18:16.189Z,5.8
2023-05-07T20:33:26.824Z,5.6
2023-05-07T20:48:36.132Z,5.5
2023-05-07T21:03:45.651Z,5.1
2023-05-07T21:18:55.274Z,6
2023-05-07T21:34:04.855Z,6.1
2023-05-07T21:49:14.392Z,6.5
2023-05-07T22:04:26.703Z,7.1
2023-05-07T22:19:36.718Z,7
2023-05-07T22:34:46.419Z,7
2023-05-07T22:49:56.066Z,7.8
2023-05-07T23:05:05.856Z,9.1
2023-05-07T23:20:15.422Z,7.8
2023-05-07T23:35:26.953Z,7.7
2023-05-07T23:50:36.245Z,7.4
